sensor_id;sensor_type;location;lat;lon;timestamp;P1;durP1;ratioP1;P2;durP2;ratioP2
16878;SDS011;8556;52.218;9.884;2022-09-03T00:02:32;3.17;;;1.87;;
16878;SDS011;8556;52.218;9.884;2022-09-03T00:05:04;4.33;;;1.90;;
16878;SDS011;8556;52.218;9.884;2022-09-03T00:07:38;3.63;;;1.67;;
16878;SDS011;8556;52.218;9.884;2022-09-03T00:10:11;5.80;;;2.10;;
16878;SDS011;8556;52.218;9.884;2022-09-03T00:12:45;2.27;;;1.87;;
16878;SDS011;8556;52.218;9.884;2022-09-03T00:15:13;2.73;;;1.70;;
16878;SDS011;8556;52.218;9.884;2022-09-03T00:17:43;4.17;;;2.60;;
16878;SDS011;8556;52.218;9.884;2022-09-03T00:20:14;4.63;;;2.13;;
16878;SDS011;8556;52.218;9.884;2022-09-03T00:22:46;4.70;;;2.03;;
16878;SDS011;8556;52.218;9.884;2022-09-03T00:25:18;4.10;;;2.53;;
16878;SDS011;8556;52.218;9.884;2022-09-03T00:27:50;3.70;;;1.70;;
16878;SDS011;8556;52.218;9.884;2022-09-03T00:30:20;1.57;;;1.47;;
16878;SDS011;8556;52.218;9.884;2022-09-03T00:32:49;4.63;;;1.90;;
16878;SDS011;8556;52.218;9.884;2022-09-03T00:35:22;3.37;;;1.70;;
16878;SDS011;8556;52.218;9.884;2022-09-03T00:37:54;3.27;;;2.00;;
16878;SDS011;8556;52.218;9.884;2022-09-03T00:40:35;7.83;;;2.27;;
16878;SDS011;8556;52.218;9.884;2022-09-03T00:43:14;4.90;;;2.17;;
16878;SDS011;8556;52.218;9.884;2022-09-03T00:45:59;11.30;;;2.30;;
16878;SDS011;8556;52.218;9.884;2022-09-03T00:48:35;3.50;;;2.20;;
16878;SDS011;8556;52.218;9.884;2022-09-03T00:51:13;2.93;;;2.30;;
16878;SDS011;8556;52.218;9.884;2022-09-03T00:53:53;3.83;;;2.50;;
16878;SDS011;8556;52.218;9.884;2022-09-03T00:56:26;5.37;;;3.70;;
16878;SDS011;8556;52.218;9.884;2022-09-03T00:59:03;12.33;;;4.60;;
16878;SDS011;8556;52.218;9.884;2022-09-03T01:01:39;8.27;;;4.47;;
16878;SDS011;8556;52.218;9.884;2022-09-03T01:04:23;5.67;;;3.07;;
16878;SDS011;8556;52.218;9.884;2022-09-03T01:07:02;8.43;;;4.30;;
16878;SDS011;8556;52.218;9.884;2022-09-03T01:09:39;6.27;;;3.13;;
16878;SDS011;8556;52.218;9.884;2022-09-03T01:12:16;6.10;;;2.40;;
16878;SDS011;8556;52.218;9.884;2022-09-03T01:14:56;4.40;;;2.40;;
16878;SDS011;8556;52.218;9.884;2022-09-03T01:17:31;2.27;;;1.83;;
16878;SDS011;8556;52.218;9.884;2022-09-03T01:20:15;2.00;;;1.80;;
16878;SDS011;8556;52.218;9.884;2022-09-03T01:22:59;3.53;;;2.10;;
16878;SDS011;8556;52.218;9.884;2022-09-03T01:26:02;3.73;;;2.23;;
16878;SDS011;8556;52.218;9.884;2022-09-03T01:28:45;2.27;;;2.00;;
16878;SDS011;8556;52.218;9.884;2022-09-03T01:31:23;4.10;;;2.00;;
16878;SDS011;8556;52.218;9.884;2022-09-03T01:34:02;5.63;;;2.73;;
16878;SDS011;8556;52.218;9.884;2022-09-03T01:36:37;2.70;;;2.03;;
16878;SDS011;8556;52.218;9.884;2022-09-03T01:39:11;2.63;;;2.43;;
16878;SDS011;8556;52.218;9.884;2022-09-03T01:41:44;2.57;;;1.80;;
16878;SDS011;8556;52.218;9.884;2022-09-03T01:44:39;3.60;;;1.90;;
16878;SDS011;8556;52.218;9.884;2022-09-03T01:47:19;1.93;;;1.70;;
16878;SDS011;8556;52.218;9.884;2022-09-03T01:49:59;3.33;;;1.70;;
16878;SDS011;8556;52.218;9.884;2022-09-03T01:52:35;4.27;;;1.97;;
16878;SDS011;8556;52.218;9.884;2022-09-03T01:55:12;2.77;;;2.10;;
16878;SDS011;8556;52.218;9.884;2022-09-03T01:57:52;2.33;;;1.83;;
16878;SDS011;8556;52.218;9.884;2022-09-03T02:00:26;3.07;;;2.10;;
16878;SDS011;8556;52.218;9.884;2022-09-03T02:02:55;2.47;;;1.93;;
16878;SDS011;8556;52.218;9.884;2022-09-03T02:05:29;2.50;;;1.63;;
16878;SDS011;8556;52.218;9.884;2022-09-03T02:07:57;2.63;;;1.50;;
16878;SDS011;8556;52.218;9.884;2022-09-03T02:10:26;4.23;;;1.60;;
16878;SDS011;8556;52.218;9.884;2022-09-03T02:12:57;4.57;;;1.90;;
16878;SDS011;8556;52.218;9.884;2022-09-03T02:15:28;4.60;;;1.83;;
16878;SDS011;8556;52.218;9.884;2022-09-03T02:17:59;2.20;;;1.80;;
16878;SDS011;8556;52.218;9.884;2022-09-03T02:20:28;2.93;;;1.70;;
16878;SDS011;8556;52.218;9.884;2022-09-03T02:22:56;3.53;;;2.30;;
16878;SDS011;8556;52.218;9.884;2022-09-03T02:25:25;3.10;;;1.60;;
16878;SDS011;8556;52.218;9.884;2022-09-03T02:27:55;1.80;;;1.70;;
16878;SDS011;8556;52.218;9.884;2022-09-03T02:30:23;4.67;;;2.00;;
16878;SDS011;8556;52.218;9.884;2022-09-03T02:32:51;1.77;;;1.67;;
16878;SDS011;8556;52.218;9.884;2022-09-03T02:35:18;1.80;;;1.53;;
16878;SDS011;8556;52.218;9.884;2022-09-03T02:37:45;2.40;;;1.57;;
16878;SDS011;8556;52.218;9.884;2022-09-03T02:40:13;2.00;;;1.90;;
16878;SDS011;8556;52.218;9.884;2022-09-03T02:42:40;2.00;;;1.60;;
16878;SDS011;8556;52.218;9.884;2022-09-03T02:45:09;3.00;;;1.73;;
16878;SDS011;8556;52.218;9.884;2022-09-03T02:47:46;2.33;;;1.70;;
16878;SDS011;8556;52.218;9.884;2022-09-03T02:50:18;2.00;;;1.80;;
16878;SDS011;8556;52.218;9.884;2022-09-03T02:52:44;2.10;;;1.90;;
16878;SDS011;8556;52.218;9.884;2022-09-03T02:55:11;1.80;;;1.63;;
16878;SDS011;8556;52.218;9.884;2022-09-03T02:57:38;1.80;;;1.70;;
16878;SDS011;8556;52.218;9.884;2022-09-03T03:00:06;2.03;;;1.87;;
16878;SDS011;8556;52.218;9.884;2022-09-03T03:02:34;2.17;;;1.73;;
16878;SDS011;8556;52.218;9.884;2022-09-03T03:05:02;2.97;;;1.90;;
16878;SDS011;8556;52.218;9.884;2022-09-03T03:07:35;1.73;;;1.63;;
16878;SDS011;8556;52.218;9.884;2022-09-03T03:10:04;2.20;;;1.80;;
16878;SDS011;8556;52.218;9.884;2022-09-03T03:12:32;2.20;;;1.70;;
16878;SDS011;8556;52.218;9.884;2022-09-03T03:14:59;2.73;;;1.77;;
16878;SDS011;8556;52.218;9.884;2022-09-03T03:17:26;2.67;;;1.90;;
16878;SDS011;8556;52.218;9.884;2022-09-03T03:19:53;1.93;;;1.70;;
16878;SDS011;8556;52.218;9.884;2022-09-03T03:22:20;5.43;;;1.87;;
16878;SDS011;8556;52.218;9.884;2022-09-03T03:24:48;1.57;;;1.47;;
16878;SDS011;8556;52.218;9.884;2022-09-03T03:27:16;4.30;;;1.63;;
16878;SDS011;8556;52.218;9.884;2022-09-03T03:29:44;2.80;;;1.60;;
16878;SDS011;8556;52.218;9.884;2022-09-03T03:32:10;5.03;;;1.70;;
16878;SDS011;8556;52.218;9.884;2022-09-03T03:34:37;2.17;;;1.80;;
16878;SDS011;8556;52.218;9.884;2022-09-03T03:37:04;3.03;;;1.57;;
16878;SDS011;8556;52.218;9.884;2022-09-03T03:39:31;1.60;;;1.50;;
16878;SDS011;8556;52.218;9.884;2022-09-03T03:41:59;2.20;;;1.67;;
16878;SDS011;8556;52.218;9.884;2022-09-03T03:44:26;1.90;;;1.77;;
16878;SDS011;8556;52.218;9.884;2022-09-03T03:46:53;3.07;;;1.87;;
16878;SDS011;8556;52.218;9.884;2022-09-03T03:49:20;2.33;;;1.60;;
16878;SDS011;8556;52.218;9.884;2022-09-03T03:51:46;1.57;;;1.40;;
16878;SDS011;8556;52.218;9.884;2022-09-03T03:54:13;2.57;;;1.60;;
16878;SDS011;8556;52.218;9.884;2022-09-03T03:56:40;1.70;;;1.60;;
16878;SDS011;8556;52.218;9.884;2022-09-03T03:59:08;2.80;;;1.90;;
16878;SDS011;8556;52.218;9.884;2022-09-03T04:01:35;1.83;;;1.60;;
16878;SDS011;8556;52.218;9.884;2022-09-03T04:04:02;2.07;;;1.60;;
16878;SDS011;8556;52.218;9.884;2022-09-03T04:06:29;4.17;;;1.57;;
16878;SDS011;8556;52.218;9.884;2022-09-03T04:08:56;2.37;;;1.57;;
16878;SDS011;8556;52.218;9.884;2022-09-03T04:11:23;5.70;;;1.63;;
16878;SDS011;8556;52.218;9.884;2022-09-03T04:13:51;1.77;;;1.40;;
16878;SDS011;8556;52.218;9.884;2022-09-03T04:16:20;2.97;;;1.57;;
16878;SDS011;8556;52.218;9.884;2022-09-03T04:18:49;2.70;;;1.77;;
16878;SDS011;8556;52.218;9.884;2022-09-03T04:21:17;2.47;;;1.53;;
16878;SDS011;8556;52.218;9.884;2022-09-03T04:23:46;2.13;;;1.73;;
16878;SDS011;8556;52.218;9.884;2022-09-03T04:26:18;2.40;;;1.87;;
16878;SDS011;8556;52.218;9.884;2022-09-03T04:28:46;1.73;;;1.63;;
16878;SDS011;8556;52.218;9.884;2022-09-03T04:31:13;1.47;;;1.30;;
16878;SDS011;8556;52.218;9.884;2022-09-03T04:33:43;4.50;;;1.67;;
16878;SDS011;8556;52.218;9.884;2022-09-03T04:36:11;1.97;;;1.80;;
16878;SDS011;8556;52.218;9.884;2022-09-03T04:38:39;2.50;;;1.57;;
16878;SDS011;8556;52.218;9.884;2022-09-03T04:41:07;4.17;;;2.00;;
16878;SDS011;8556;52.218;9.884;2022-09-03T04:43:36;2.40;;;1.73;;
16878;SDS011;8556;52.218;9.884;2022-09-03T04:46:04;3.57;;;1.90;;
16878;SDS011;8556;52.218;9.884;2022-09-03T04:48:32;2.00;;;1.70;;
16878;SDS011;8556;52.218;9.884;2022-09-03T04:51:03;2.77;;;2.07;;
16878;SDS011;8556;52.218;9.884;2022-09-03T04:53:31;5.73;;;1.97;;
16878;SDS011;8556;52.218;9.884;2022-09-03T04:55:59;5.47;;;2.57;;
16878;SDS011;8556;52.218;9.884;2022-09-03T04:58:31;1.77;;;1.67;;
16878;SDS011;8556;52.218;9.884;2022-09-03T05:01:05;3.77;;;2.17;;
16878;SDS011;8556;52.218;9.884;2022-09-03T05:03:33;2.87;;;2.20;;
16878;SDS011;8556;52.218;9.884;2022-09-03T05:06:03;3.07;;;2.27;;
16878;SDS011;8556;52.218;9.884;2022-09-03T05:08:30;3.37;;;2.27;;
16878;SDS011;8556;52.218;9.884;2022-09-03T05:11:01;3.37;;;2.23;;
16878;SDS011;8556;52.218;9.884;2022-09-03T05:13:28;7.53;;;2.27;;
16878;SDS011;8556;52.218;9.884;2022-09-03T05:15:57;4.43;;;1.80;;
16878;SDS011;8556;52.218;9.884;2022-09-03T05:18:25;5.43;;;1.90;;
16878;SDS011;8556;52.218;9.884;2022-09-03T05:20:58;3.57;;;2.20;;
16878;SDS011;8556;52.218;9.884;2022-09-03T05:23:27;4.30;;;1.93;;
16878;SDS011;8556;52.218;9.884;2022-09-03T05:25:55;4.23;;;2.03;;
16878;SDS011;8556;52.218;9.884;2022-09-03T05:28:22;3.00;;;1.87;;
16878;SDS011;8556;52.218;9.884;2022-09-03T05:30:57;4.50;;;2.67;;
16878;SDS011;8556;52.218;9.884;2022-09-03T05:33:24;4.97;;;2.40;;
16878;SDS011;8556;52.218;9.884;2022-09-03T05:35:52;5.03;;;2.23;;
16878;SDS011;8556;52.218;9.884;2022-09-03T05:38:19;3.20;;;2.03;;
16878;SDS011;8556;52.218;9.884;2022-09-03T05:40:47;4.23;;;2.10;;
16878;SDS011;8556;52.218;9.884;2022-09-03T05:43:14;3.87;;;2.30;;
16878;SDS011;8556;52.218;9.884;2022-09-03T05:45:41;2.27;;;1.90;;
16878;SDS011;8556;52.218;9.884;2022-09-03T05:48:08;2.10;;;2.00;;
16878;SDS011;8556;52.218;9.884;2022-09-03T05:50:35;4.27;;;2.20;;
16878;SDS011;8556;52.218;9.884;2022-09-03T05:53:02;2.60;;;2.23;;
16878;SDS011;8556;52.218;9.884;2022-09-03T05:55:29;4.90;;;2.13;;
16878;SDS011;8556;52.218;9.884;2022-09-03T05:57:57;2.27;;;2.00;;
16878;SDS011;8556;52.218;9.884;2022-09-03T06:00:24;3.13;;;1.80;;
16878;SDS011;8556;52.218;9.884;2022-09-03T06:02:52;2.53;;;1.70;;
16878;SDS011;8556;52.218;9.884;2022-09-03T06:05:19;4.80;;;1.90;;
16878;SDS011;8556;52.218;9.884;2022-09-03T06:07:46;3.00;;;2.10;;
16878;SDS011;8556;52.218;9.884;2022-09-03T06:10:13;4.07;;;2.33;;
16878;SDS011;8556;52.218;9.884;2022-09-03T06:12:41;5.30;;;1.80;;
16878;SDS011;8556;52.218;9.884;2022-09-03T06:15:15;4.90;;;2.00;;
16878;SDS011;8556;52.218;9.884;2022-09-03T06:17:42;7.07;;;2.00;;
16878;SDS011;8556;52.218;9.884;2022-09-03T06:20:10;2.83;;;1.67;;
16878;SDS011;8556;52.218;9.884;2022-09-03T06:22:37;3.60;;;1.70;;
16878;SDS011;8556;52.218;9.884;2022-09-03T06:25:04;2.27;;;1.87;;
16878;SDS011;8556;52.218;9.884;2022-09-03T06:27:31;5.97;;;2.20;;
16878;SDS011;8556;52.218;9.884;2022-09-03T06:29:58;2.57;;;1.87;;
16878;SDS011;8556;52.218;9.884;2022-09-03T06:32:26;1.87;;;1.60;;
16878;SDS011;8556;52.218;9.884;2022-09-03T06:34:53;4.67;;;2.20;;
16878;SDS011;8556;52.218;9.884;2022-09-03T06:37:20;3.73;;;1.67;;
16878;SDS011;8556;52.218;9.884;2022-09-03T06:39:47;2.50;;;1.90;;
16878;SDS011;8556;52.218;9.884;2022-09-03T06:42:15;2.57;;;1.93;;
16878;SDS011;8556;52.218;9.884;2022-09-03T06:44:42;3.13;;;1.60;;
16878;SDS011;8556;52.218;9.884;2022-09-03T06:47:09;1.80;;;1.53;;
16878;SDS011;8556;52.218;9.884;2022-09-03T06:49:37;2.47;;;1.70;;
16878;SDS011;8556;52.218;9.884;2022-09-03T06:52:04;4.10;;;1.80;;
16878;SDS011;8556;52.218;9.884;2022-09-03T06:54:31;3.10;;;1.77;;
16878;SDS011;8556;52.218;9.884;2022-09-03T06:56:58;1.87;;;1.60;;
16878;SDS011;8556;52.218;9.884;2022-09-03T06:59:25;3.13;;;1.90;;
16878;SDS011;8556;52.218;9.884;2022-09-03T07:01:52;2.90;;;1.63;;
16878;SDS011;8556;52.218;9.884;2022-09-03T07:04:19;3.17;;;1.67;;
16878;SDS011;8556;52.218;9.884;2022-09-03T07:06:50;3.60;;;1.70;;
16878;SDS011;8556;52.218;9.884;2022-09-03T07:09:17;2.20;;;1.60;;
16878;SDS011;8556;52.218;9.884;2022-09-03T07:11:44;8.40;;;2.07;;
16878;SDS011;8556;52.218;9.884;2022-09-03T07:14:14;5.37;;;2.00;;
16878;SDS011;8556;52.218;9.884;2022-09-03T07:16:42;2.50;;;1.53;;
16878;SDS011;8556;52.218;9.884;2022-09-03T07:19:10;3.00;;;1.70;;
16878;SDS011;8556;52.218;9.884;2022-09-03T07:21:37;6.83;;;2.03;;
16878;SDS011;8556;52.218;9.884;2022-09-03T07:24:07;1.87;;;1.70;;
16878;SDS011;8556;52.218;9.884;2022-09-03T07:26:35;4.53;;;1.60;;
16878;SDS011;8556;52.218;9.884;2022-09-03T07:29:04;1.92;;;1.60;;
16878;SDS011;8556;52.218;9.884;2022-09-03T07:31:33;2.58;;;1.60;;
16878;SDS011;8556;52.218;9.884;2022-09-03T07:34:02;3.72;;;2.10;;
16878;SDS011;8556;52.218;9.884;2022-09-03T07:36:31;4.70;;;1.75;;
16878;SDS011;8556;52.218;9.884;2022-09-03T07:39:03;2.33;;;1.90;;
16878;SDS011;8556;52.218;9.884;2022-09-03T07:41:31;2.43;;;1.80;;
16878;SDS011;8556;52.218;9.884;2022-09-03T07:43:58;3.75;;;1.73;;
16878;SDS011;8556;52.218;9.884;2022-09-03T07:46:29;2.17;;;1.67;;
16878;SDS011;8556;52.218;9.884;2022-09-03T07:48:58;2.05;;;1.80;;
16878;SDS011;8556;52.218;9.884;2022-09-03T07:51:27;2.30;;;2.05;;
16878;SDS011;8556;52.218;9.884;2022-09-03T07:53:55;2.03;;;1.67;;
16878;SDS011;8556;52.218;9.884;2022-09-03T07:56:24;3.25;;;1.63;;
16878;SDS011;8556;52.218;9.884;2022-09-03T07:58:53;3.63;;;1.98;;
16878;SDS011;8556;52.218;9.884;2022-09-03T08:01:20;2.30;;;2.10;;
16878;SDS011;8556;52.218;9.884;2022-09-03T08:03:49;3.15;;;1.63;;
16878;SDS011;8556;52.218;9.884;2022-09-03T08:06:17;2.97;;;1.70;;
16878;SDS011;8556;52.218;9.884;2022-09-03T08:08:45;2.20;;;2.00;;
16878;SDS011;8556;52.218;9.884;2022-09-03T08:11:14;3.50;;;1.55;;
16878;SDS011;8556;52.218;9.884;2022-09-03T08:13:43;2.50;;;1.83;;
16878;SDS011;8556;52.218;9.884;2022-09-03T08:16:14;2.00;;;1.70;;
16878;SDS011;8556;52.218;9.884;2022-09-03T08:18:42;2.50;;;1.90;;
16878;SDS011;8556;52.218;9.884;2022-09-03T08:21:12;2.67;;;1.80;;
16878;SDS011;8556;52.218;9.884;2022-09-03T08:23:41;3.70;;;2.10;;
16878;SDS011;8556;52.218;9.884;2022-09-03T08:26:09;4.15;;;1.92;;
16878;SDS011;8556;52.218;9.884;2022-09-03T08:28:36;1.65;;;1.55;;
16878;SDS011;8556;52.218;9.884;2022-09-03T08:31:04;1.70;;;1.60;;
16878;SDS011;8556;52.218;9.884;2022-09-03T08:33:35;2.10;;;1.73;;
16878;SDS011;8556;52.218;9.884;2022-09-03T08:36:03;4.15;;;1.70;;
16878;SDS011;8556;52.218;9.884;2022-09-03T08:38:32;2.30;;;1.58;;
16878;SDS011;8556;52.218;9.884;2022-09-03T08:41:04;2.28;;;1.65;;
16878;SDS011;8556;52.218;9.884;2022-09-03T08:43:32;2.67;;;1.55;;
16878;SDS011;8556;52.218;9.884;2022-09-03T08:46:10;2.33;;;1.70;;
16878;SDS011;8556;52.218;9.884;2022-09-03T08:48:39;2.40;;;1.63;;
16878;SDS011;8556;52.218;9.884;2022-09-03T08:51:06;3.88;;;1.67;;
16878;SDS011;8556;52.218;9.884;2022-09-03T08:53:38;3.67;;;1.50;;
16878;SDS011;8556;52.218;9.884;2022-09-03T08:56:11;3.38;;;1.50;;
16878;SDS011;8556;52.218;9.884;2022-09-03T08:58:43;4.22;;;1.65;;
16878;SDS011;8556;52.218;9.884;2022-09-03T09:01:11;5.93;;;1.73;;
16878;SDS011;8556;52.218;9.884;2022-09-03T09:03:52;1.55;;;1.40;;
16878;SDS011;8556;52.218;9.884;2022-09-03T09:06:31;2.90;;;1.70;;
16878;SDS011;8556;52.218;9.884;2022-09-03T09:09:06;2.28;;;1.90;;
16878;SDS011;8556;52.218;9.884;2022-09-03T09:11:45;1.63;;;1.52;;
16878;SDS011;8556;52.218;9.884;2022-09-03T09:14:23;3.13;;;1.73;;
16878;SDS011;8556;52.218;9.884;2022-09-03T09:16:59;4.05;;;1.90;;
16878;SDS011;8556;52.218;9.884;2022-09-03T09:19:40;4.22;;;1.88;;
16878;SDS011;8556;52.218;9.884;2022-09-03T09:22:18;2.63;;;1.50;;
16878;SDS011;8556;52.218;9.884;2022-09-03T09:24:50;2.45;;;1.63;;
16878;SDS011;8556;52.218;9.884;2022-09-03T09:27:21;5.40;;;1.92;;
16878;SDS011;8556;52.218;9.884;2022-09-03T09:29:49;3.30;;;1.35;;
16878;SDS011;8556;52.218;9.884;2022-09-03T09:32:18;1.42;;;1.33;;
16878;SDS011;8556;52.218;9.884;2022-09-03T09:34:47;2.10;;;1.30;;
16878;SDS011;8556;52.218;9.884;2022-09-03T09:37:14;3.20;;;1.45;;
16878;SDS011;8556;52.218;9.884;2022-09-03T09:39:52;4.63;;;1.48;;
16878;SDS011;8556;52.218;9.884;2022-09-03T09:42:21;5.82;;;1.98;;
16878;SDS011;8556;52.218;9.884;2022-09-03T09:44:48;2.72;;;1.42;;
16878;SDS011;8556;52.218;9.884;2022-09-03T09:47:20;8.40;;;1.67;;
16878;SDS011;8556;52.218;9.884;2022-09-03T09:49:52;3.13;;;1.63;;
16878;SDS011;8556;52.218;9.884;2022-09-03T09:52:20;2.10;;;1.50;;
16878;SDS011;8556;52.218;9.884;2022-09-03T09:54:50;3.72;;;1.90;;
16878;SDS011;8556;52.218;9.884;2022-09-03T09:57:21;3.30;;;1.42;;
16878;SDS011;8556;52.218;9.884;2022-09-03T09:59:49;2.17;;;1.50;;
16878;SDS011;8556;52.218;9.884;2022-09-03T10:02:33;3.83;;;1.52;;
16878;SDS011;8556;52.218;9.884;2022-09-03T10:05:12;5.13;;;1.80;;
16878;SDS011;8556;52.218;9.884;2022-09-03T10:07:40;3.55;;;1.70;;
16878;SDS011;8556;52.218;9.884;2022-09-03T10:10:13;1.70;;;1.50;;
16878;SDS011;8556;52.218;9.884;2022-09-03T10:12:44;5.88;;;1.60;;
16878;SDS011;8556;52.218;9.884;2022-09-03T10:15:17;4.55;;;1.50;;
16878;SDS011;8556;52.218;9.884;2022-09-03T10:17:55;5.88;;;1.70;;
16878;SDS011;8556;52.218;9.884;2022-09-03T10:20:30;4.97;;;1.70;;
16878;SDS011;8556;52.218;9.884;2022-09-03T10:23:06;2.33;;;1.42;;
16878;SDS011;8556;52.218;9.884;2022-09-03T10:25:39;1.42;;;1.30;;
16878;SDS011;8556;52.218;9.884;2022-09-03T10:28:16;4.18;;;1.60;;
16878;SDS011;8556;52.218;9.884;2022-09-03T10:30:52;1.67;;;1.33;;
16878;SDS011;8556;52.218;9.884;2022-09-03T10:33:29;3.30;;;1.50;;
16878;SDS011;8556;52.218;9.884;2022-09-03T10:36:05;3.10;;;1.48;;
16878;SDS011;8556;52.218;9.884;2022-09-03T10:38:40;1.67;;;1.20;;
16878;SDS011;8556;52.218;9.884;2022-09-03T10:41:14;6.82;;;1.55;;
16878;SDS011;8556;52.218;9.884;2022-09-03T10:43:56;2.95;;;1.50;;
16878;SDS011;8556;52.218;9.884;2022-09-03T10:46:35;3.20;;;1.50;;
16878;SDS011;8556;52.218;9.884;2022-09-03T10:49:16;5.20;;;1.40;;
16878;SDS011;8556;52.218;9.884;2022-09-03T10:52:02;2.08;;;1.10;;
16878;SDS011;8556;52.218;9.884;2022-09-03T10:54:40;5.78;;;1.40;;
16878;SDS011;8556;52.218;9.884;2022-09-03T10:57:23;1.67;;;1.58;;
16878;SDS011;8556;52.218;9.884;2022-09-03T10:59:59;2.65;;;1.50;;
16878;SDS011;8556;52.218;9.884;2022-09-03T11:05:46;3.10;;;1.30;;
16878;SDS011;8556;52.218;9.884;2022-09-03T11:08:24;2.28;;;1.35;;
16878;SDS011;8556;52.218;9.884;2022-09-03T11:10:56;2.80;;;1.80;;
16878;SDS011;8556;52.218;9.884;2022-09-03T11:13:30;1.75;;;1.33;;
16878;SDS011;8556;52.218;9.884;2022-09-03T11:16:00;1.77;;;1.38;;
16878;SDS011;8556;52.218;9.884;2022-09-03T11:18:32;1.80;;;1.23;;
16878;SDS011;8556;52.218;9.884;2022-09-03T11:21:04;3.08;;;1.58;;
16878;SDS011;8556;52.218;9.884;2022-09-03T11:23:37;3.00;;;1.67;;
16878;SDS011;8556;52.218;9.884;2022-09-03T11:26:09;2.95;;;1.27;;
16878;SDS011;8556;52.218;9.884;2022-09-03T11:28:39;2.88;;;1.52;;
16878;SDS011;8556;52.218;9.884;2022-09-03T11:31:15;1.48;;;1.23;;
16878;SDS011;8556;52.218;9.884;2022-09-03T11:33:48;3.15;;;1.30;;
16878;SDS011;8556;52.218;9.884;2022-09-03T11:36:22;2.60;;;1.20;;
16878;SDS011;8556;52.218;9.884;2022-09-03T11:38:56;2.80;;;1.27;;
16878;SDS011;8556;52.218;9.884;2022-09-03T11:41:24;1.35;;;1.25;;
16878;SDS011;8556;52.218;9.884;2022-09-03T11:43:52;4.85;;;1.90;;
16878;SDS011;8556;52.218;9.884;2022-09-03T11:46:27;2.03;;;1.50;;
16878;SDS011;8556;52.218;9.884;2022-09-03T11:48:56;1.63;;;1.40;;
16878;SDS011;8556;52.218;9.884;2022-09-03T11:51:35;3.38;;;1.50;;
16878;SDS011;8556;52.218;9.884;2022-09-03T11:54:05;2.10;;;1.20;;
16878;SDS011;8556;52.218;9.884;2022-09-03T11:56:49;2.33;;;1.70;;
16878;SDS011;8556;52.218;9.884;2022-09-03T11:59:30;3.90;;;1.90;;
16878;SDS011;8556;52.218;9.884;2022-09-03T12:01:59;2.28;;;1.90;;
16878;SDS011;8556;52.218;9.884;2022-09-03T12:04:31;1.40;;;1.27;;
16878;SDS011;8556;52.218;9.884;2022-09-03T12:07:12;1.60;;;1.35;;
16878;SDS011;8556;52.218;9.884;2022-09-03T12:09:57;2.13;;;1.35;;
16878;SDS011;8556;52.218;9.884;2022-09-03T12:12:39;2.13;;;1.77;;
16878;SDS011;8556;52.218;9.884;2022-09-03T12:15:21;1.42;;;1.27;;
16878;SDS011;8556;52.218;9.884;2022-09-03T12:18:01;1.40;;;1.30;;
16878;SDS011;8556;52.218;9.884;2022-09-03T12:20:44;5.00;;;1.88;;
16878;SDS011;8556;52.218;9.884;2022-09-03T12:23:12;2.38;;;1.55;;
16878;SDS011;8556;52.218;9.884;2022-09-03T12:25:45;2.58;;;1.25;;
16878;SDS011;8556;52.218;9.884;2022-09-03T12:28:15;2.60;;;1.25;;
16878;SDS011;8556;52.218;9.884;2022-09-03T12:30:47;2.25;;;1.40;;
16878;SDS011;8556;52.218;9.884;2022-09-03T12:33:17;2.20;;;1.20;;
16878;SDS011;8556;52.218;9.884;2022-09-03T12:35:54;3.10;;;1.50;;
16878;SDS011;8556;52.218;9.884;2022-09-03T12:38:22;2.03;;;1.00;;
16878;SDS011;8556;52.218;9.884;2022-09-03T12:40:51;1.33;;;1.23;;
16878;SDS011;8556;52.218;9.884;2022-09-03T12:43:18;3.30;;;1.10;;
16878;SDS011;8556;52.218;9.884;2022-09-03T12:45:47;1.77;;;1.08;;
16878;SDS011;8556;52.218;9.884;2022-09-03T12:48:15;1.17;;;1.08;;
16878;SDS011;8556;52.218;9.884;2022-09-03T12:50:44;2.33;;;1.20;;
16878;SDS011;8556;52.218;9.884;2022-09-03T12:53:13;1.02;;;1.02;;
16878;SDS011;8556;52.218;9.884;2022-09-03T12:55:45;2.83;;;1.35;;
16878;SDS011;8556;52.218;9.884;2022-09-03T12:58:16;1.38;;;1.20;;
16878;SDS011;8556;52.218;9.884;2022-09-03T13:00:48;1.58;;;1.48;;
16878;SDS011;8556;52.218;9.884;2022-09-03T13:03:22;1.52;;;1.30;;
16878;SDS011;8556;52.218;9.884;2022-09-03T13:05:54;2.50;;;1.50;;
16878;SDS011;8556;52.218;9.884;2022-09-03T13:08:24;1.50;;;1.40;;
16878;SDS011;8556;52.218;9.884;2022-09-03T13:10:55;1.88;;;1.48;;
16878;SDS011;8556;52.218;9.884;2022-09-03T13:13:26;3.10;;;1.35;;
16878;SDS011;8556;52.218;9.884;2022-09-03T13:16:08;2.75;;;1.17;;
16878;SDS011;8556;52.218;9.884;2022-09-03T13:18:50;2.50;;;1.05;;
16878;SDS011;8556;52.218;9.884;2022-09-03T13:21:28;1.75;;;1.38;;
16878;SDS011;8556;52.218;9.884;2022-09-03T13:24:15;6.82;;;1.80;;
16878;SDS011;8556;52.218;9.884;2022-09-03T13:26:55;1.90;;;1.48;;
16878;SDS011;8556;52.218;9.884;2022-09-03T13:29:37;1.63;;;1.35;;
16878;SDS011;8556;52.218;9.884;2022-09-03T13:32:17;3.47;;;1.50;;
16878;SDS011;8556;52.218;9.884;2022-09-03T13:34:56;2.13;;;1.40;;
16878;SDS011;8556;52.218;9.884;2022-09-03T13:37:27;2.30;;;1.58;;
16878;SDS011;8556;52.218;9.884;2022-09-03T13:40:00;1.33;;;1.23;;
16878;SDS011;8556;52.218;9.884;2022-09-03T13:42:40;4.00;;;1.48;;
16878;SDS011;8556;52.218;9.884;2022-09-03T13:45:15;1.45;;;1.33;;
16878;SDS011;8556;52.218;9.884;2022-09-03T13:47:56;2.05;;;1.30;;
16878;SDS011;8556;52.218;9.884;2022-09-03T13:50:44;2.20;;;1.58;;
16878;SDS011;8556;52.218;9.884;2022-09-03T13:53:19;1.45;;;1.30;;
16878;SDS011;8556;52.218;9.884;2022-09-03T13:55:56;3.33;;;1.75;;
16878;SDS011;8556;52.218;9.884;2022-09-03T13:58:31;1.20;;;1.05;;
16878;SDS011;8556;52.218;9.884;2022-09-03T14:01:07;2.92;;;1.38;;
16878;SDS011;8556;52.218;9.884;2022-09-03T14:03:42;1.83;;;1.25;;
16878;SDS011;8556;52.218;9.884;2022-09-03T14:06:12;1.98;;;1.10;;
16878;SDS011;8556;52.218;9.884;2022-09-03T14:08:58;2.20;;;1.35;;
16878;SDS011;8556;52.218;9.884;2022-09-03T14:11:30;2.47;;;1.30;;
16878;SDS011;8556;52.218;9.884;2022-09-03T14:14:07;3.55;;;1.40;;
16878;SDS011;8556;52.218;9.884;2022-09-03T14:16:45;1.60;;;1.30;;
16878;SDS011;8556;52.218;9.884;2022-09-03T14:19:20;3.08;;;1.52;;
16878;SDS011;8556;52.218;9.884;2022-09-03T14:21:58;1.45;;;1.17;;
16878;SDS011;8556;52.218;9.884;2022-09-03T14:24:33;1.48;;;1.35;;
16878;SDS011;8556;52.218;9.884;2022-09-03T14:27:09;1.73;;;1.63;;
16878;SDS011;8556;52.218;9.884;2022-09-03T14:29:36;2.55;;;1.23;;
16878;SDS011;8556;52.218;9.884;2022-09-03T14:34:59;1.48;;;1.30;;
16878;SDS011;8556;52.218;9.884;2022-09-03T14:37:42;1.95;;;1.10;;
16878;SDS011;8556;52.218;9.884;2022-09-03T14:40:25;2.88;;;1.50;;
16878;SDS011;8556;52.218;9.884;2022-09-03T14:43:02;1.55;;;1.42;;
16878;SDS011;8556;52.218;9.884;2022-09-03T14:45:44;2.97;;;1.67;;
16878;SDS011;8556;52.218;9.884;2022-09-03T14:51:25;3.65;;;1.30;;
16878;SDS011;8556;52.218;9.884;2022-09-03T14:57:10;2.53;;;1.48;;
16878;SDS011;8556;52.218;9.884;2022-09-03T15:00:00;2.70;;;1.35;;
16878;SDS011;8556;52.218;9.884;2022-09-03T15:05:43;3.20;;;1.10;;
16878;SDS011;8556;52.218;9.884;2022-09-03T15:08:24;3.83;;;1.50;;
16878;SDS011;8556;52.218;9.884;2022-09-03T15:11:14;2.97;;;1.40;;
16878;SDS011;8556;52.218;9.884;2022-09-03T15:13:44;1.98;;;1.40;;
16878;SDS011;8556;52.218;9.884;2022-09-03T15:16:23;2.67;;;1.17;;
16878;SDS011;8556;52.218;9.884;2022-09-03T15:19:03;2.60;;;1.20;;
16878;SDS011;8556;52.218;9.884;2022-09-03T15:21:46;2.25;;;1.55;;
16878;SDS011;8556;52.218;9.884;2022-09-03T15:24:30;2.88;;;1.48;;
16878;SDS011;8556;52.218;9.884;2022-09-03T15:27:09;5.22;;;1.80;;
16878;SDS011;8556;52.218;9.884;2022-09-03T15:29:48;2.28;;;1.17;;
16878;SDS011;8556;52.218;9.884;2022-09-03T15:32:24;2.72;;;1.30;;
16878;SDS011;8556;52.218;9.884;2022-09-03T15:35:04;2.88;;;1.52;;
16878;SDS011;8556;52.218;9.884;2022-09-03T15:37:45;3.10;;;1.52;;
16878;SDS011;8556;52.218;9.884;2022-09-03T15:40:25;1.58;;;1.48;;
16878;SDS011;8556;52.218;9.884;2022-09-03T15:42:56;3.30;;;1.58;;
16878;SDS011;8556;52.218;9.884;2022-09-03T15:45:31;3.28;;;1.67;;
16878;SDS011;8556;52.218;9.884;2022-09-03T15:48:04;2.38;;;1.70;;